Terminal Aerodrome Forecast
Issued by NWS

Current Version | Previous Version | Text Only | Print | Product List | Glossary Off
Versions: 1 2 3 4 5 6 7 8 9 10 11 12 13 14 15 16 17 18 19 20 21 22 23 24 25

341
FTUS41 KRLX 291538 AAA
TAFCKB
TAF AMD
KCKB 291538Z 2916/3012 26005KT P6SM BKN030
     FM291800 30006KT P6SM BKN030
     FM292300 VRB03KT P6SM SCT035
     FM300700 VRB03KT 4SM BR SCT001 BKN120=

USA.gov is the U.S. government's official web portal to all federal, state and local government web resources and services.